Time;durP1;ratioP1;P1;durP2;ratioP2;P2;SDS_P1;SDS_P2;PMS_P1;PMS_P2;Temp;Humidity;BMP_temperature;BMP_pressure;BME280_temperature;BME280_humidity;BME280_pressure;Samples;Min_cycle;Max_cycle;Signal;HPM_P1;HPM_P2
2023/09/25 00:00:34;;;;;;;5.57;2.57;;;;;;;13.08;86.43;101504.91;4217639;28;20247;-69
2023/09/25 00:03:03;;;;;;;5.07;2.20;;;;;;;13.09;86.22;101511.22;4197687;28;25803;-68
2023/09/25 00:05:31;;;;;;;7.27;2.67;;;;;;;13.13;86.14;101518.97;4200212;28;20233;-69
2023/09/25 00:07:58;;;;;;;6.63;2.60;;;;;;;13.13;86.03;101515.38;4213088;28;20240;-69
2023/09/25 00:10:25;;;;;;;4.10;2.27;;;;;;;13.13;86.12;101526.25;4201494;28;20301;-68
2023/09/25 00:12:52;;;;;;;6.30;2.60;;;;;;;13.08;86.49;101528.53;4202497;28;20232;-68
2023/09/25 00:15:19;;;;;;;3.90;2.63;;;;;;;13.06;86.61;101536.81;4191727;28;20303;-69
2023/09/25 00:17:45;;;;;;;6.77;2.80;;;;;;;13.11;86.31;101537.28;4196558;28;20299;-67
2023/09/25 00:20:12;;;;;;;6.93;2.50;;;;;;;13.07;86.46;101540.41;4202628;28;20616;-71
2023/09/25 00:22:40;;;;;;;3.97;2.23;;;;;;;12.96;87.13;101535.91;4201374;28;20248;-69
2023/09/25 00:25:07;;;;;;;5.67;2.70;;;;;;;12.91;87.46;101538.19;4198500;28;20243;-70
2023/09/25 00:27:34;;;;;;;5.47;2.83;;;;;;;12.96;87.18;101541.34;4195944;28;26636;-68
2023/09/25 00:30:05;;;;;;;4.17;2.63;;;;;;;12.90;87.49;101531.88;4198408;28;20259;-69
2023/09/25 00:32:33;;;;;;;3.90;2.40;;;;;;;12.89;87.56;101524.72;4203428;28;21256;-69
2023/09/25 00:35:00;;;;;;;4.70;2.73;;;;;;;12.89;87.68;101527.44;4203285;28;20307;-69
2023/09/25 00:37:27;;;;;;;5.50;2.63;;;;;;;12.87;87.73;101531.28;4195940;28;20320;-68
2023/09/25 00:39:55;;;;;;;6.03;2.70;;;;;;;12.87;87.89;101532.16;4191223;28;21611;-69
2023/09/25 00:42:22;;;;;;;5.17;2.77;;;;;;;12.81;88.10;101533.56;4211050;28;22994;-70
2023/09/25 00:44:49;;;;;;;4.97;2.70;;;;;;;12.75;88.32;101535.94;4197851;28;20245;-70
2023/09/25 00:47:16;;;;;;;5.47;2.80;;;;;;;12.77;88.18;101528.53;4189247;28;21267;-69
2023/09/25 00:49:43;;;;;;;5.33;2.60;;;;;;;12.69;88.99;101523.75;4182284;28;20466;-68
2023/09/25 00:52:11;;;;;;;5.47;2.23;;;;;;;12.65;89.09;101531.31;4180303;28;20236;-71
2023/09/25 00:54:38;;;;;;;5.90;2.57;;;;;;;12.65;89.13;101531.31;4179561;28;20265;-68
2023/09/25 00:57:09;;;;;;;7.70;2.67;;;;;;;12.70;89.06;101533.63;4190686;28;20240;-69
2023/09/25 00:59:40;;;;;;;7.37;2.47;;;;;;;12.65;89.24;101525.03;4186669;28;20238;-69
2023/09/25 01:02:07;;;;;;;8.23;2.73;;;;;;;12.64;88.96;101516.03;4182886;28;22886;-70
2023/09/25 01:04:33;;;;;;;7.17;2.93;;;;;;;12.64;89.10;101510.59;4172808;28;20331;-69
2023/09/25 01:07:00;;;;;;;6.20;2.83;;;;;;;12.66;89.05;101518.59;4179738;28;23017;-68
2023/09/25 01:09:27;;;;;;;6.67;2.83;;;;;;;12.61;89.32;101516.28;4187341;28;20380;-70
2023/09/25 01:11:54;;;;;;;4.77;2.40;;;;;;;12.61;89.79;101518.16;4197640;28;20301;-69
2023/09/25 01:14:22;;;;;;;10.00;2.67;;;;;;;12.65;89.41;101523.16;4213047;28;20540;-69
2023/09/25 01:16:48;;;;;;;4.17;2.70;;;;;;;12.59;89.60;101528.28;4184085;28;20237;-67
2023/09/25 01:19:15;;;;;;;6.80;3.30;;;;;;;12.56;89.81;101526.69;4194284;28;20505;-68
2023/09/25 01:21:47;;;;;;;7.97;2.67;;;;;;;12.59;89.64;101526.41;4198518;28;22617;-68
2023/09/25 01:24:14;;;;;;;4.77;2.87;;;;;;;12.50;90.18;101528.09;4186163;28;20293;-69
2023/09/25 01:26:40;;;;;;;6.73;3.00;;;;;;;12.47;90.49;101538.34;4178943;28;21113;-68
2023/09/25 01:29:07;;;;;;;6.27;2.83;;;;;;;12.51;90.27;101527.09;4184425;28;23628;-70
2023/09/25 01:31:34;;;;;;;8.50;2.60;;;;;;;12.57;90.01;101527.56;4179051;28;21110;-70
2023/09/25 01:34:00;;;;;;;5.63;2.90;;;;;;;12.50;90.23;101530.81;4183467;28;20355;-70
2023/09/25 01:36:27;;;;;;;5.00;2.73;;;;;;;12.51;90.49;101524.38;4185330;28;20258;-69
2023/09/25 01:38:54;;;;;;;7.20;2.97;;;;;;;12.50;90.19;101525.38;4179572;28;20300;-68
2023/09/25 01:41:22;;;;;;;5.70;2.50;;;;;;;12.44;90.73;101528.63;4177436;28;20350;-68
2023/09/25 01:43:48;;;;;;;5.13;2.73;;;;;;;12.45;90.55;101526.75;4189186;28;20241;-67
2023/09/25 01:46:15;;;;;;;7.17;3.10;;;;;;;12.47;90.48;101531.06;4208460;28;20254;-71
2023/09/25 01:48:41;;;;;;;9.50;3.33;;;;;;;12.47;90.52;101532.94;4192521;28;20244;-69
2023/09/25 01:51:11;;;;;;;7.90;2.87;;;;;;;12.44;90.49;101539.50;4192524;28;20233;-68
2023/09/25 01:53:37;;;;;;;8.10;3.00;;;;;;;12.42;90.74;101536.03;4199742;28;20241;-68
2023/09/25 01:56:11;;;;;;;5.90;2.70;;;;;;;12.44;90.65;101531.34;4204137;28;20239;-69
2023/09/25 01:58:41;;;;;;;7.23;3.00;;;;;;;12.36;91.23;101545.56;4216789;28;20279;-69
2023/09/25 02:01:08;;;;;;;7.73;3.03;;;;;;;12.40;90.99;101540.72;4207849;28;20856;-71
2023/09/25 02:03:35;;;;;;;5.47;3.00;;;;;;;12.48;90.63;101538.22;4215921;28;22584;-70
2023/09/25 02:06:03;;;;;;;9.23;3.23;;;;;;;12.45;90.46;101530.34;4192637;28;22333;-69
2023/09/25 02:08:29;;;;;;;6.73;2.87;;;;;;;12.38;91.44;101525.56;4200693;28;22101;-68
2023/09/25 02:10:56;;;;;;;8.40;2.40;;;;;;;12.34;91.14;101528.56;4207019;28;21695;-69
2023/09/25 02:13:23;;;;;;;4.50;2.57;;;;;;;12.28;91.37;101520.91;4212636;28;20297;-68
2023/09/25 02:15:49;;;;;;;5.10;2.90;;;;;;;12.30;91.36;101524.38;4203507;28;22621;-70
2023/09/25 02:18:17;;;;;;;8.73;2.97;;;;;;;12.24;91.77;101530.34;4201814;28;20247;-68
2023/09/25 02:20:43;;;;;;;5.67;3.13;;;;;;;12.29;91.44;101530.78;4188483;28;20729;-68
2023/09/25 02:23:10;;;;;;;6.87;3.33;;;;;;;12.25;91.47;101534.78;4201434;28;20304;-69
2023/09/25 02:25:36;;;;;;;6.07;2.97;;;;;;;12.17;92.10;101524.56;4202543;28;21552;-71
2023/09/25 02:28:03;;;;;;;9.87;3.10;;;;;;;12.18;91.96;101526.28;4219043;28;20613;-70
2023/09/25 02:30:30;;;;;;;8.43;3.30;;;;;;;12.07;92.64;101529.06;4200239;28;20236;-68
2023/09/25 02:32:57;;;;;;;7.00;2.90;;;;;;;12.14;92.52;101532.09;4217026;28;20351;-70
2023/09/25 02:35:23;;;;;;;5.60;2.80;;;;;;;12.06;92.87;101532.78;4200735;28;24237;-71
2023/09/25 02:37:50;;;;;;;5.13;3.00;;;;;;;12.08;93.03;101532.63;4208897;28;22945;-67
2023/09/25 02:40:18;;;;;;;6.13;2.97;;;;;;;12.03;92.90;101525.75;4222210;28;20312;-67
2023/09/25 02:42:45;;;;;;;5.90;3.57;;;;;;;12.00;93.20;101527.88;4210033;28;20416;-69
2023/09/25 02:45:12;;;;;;;7.03;3.80;;;;;;;11.98;93.37;101527.13;4202945;28;20233;-69
2023/09/25 02:47:39;;;;;;;4.83;3.10;;;;;;;12.00;93.35;101520.56;4203318;28;20236;-68
2023/09/25 02:50:06;;;;;;;8.07;3.57;;;;;;;11.86;93.76;101524.41;4214281;28;20319;-72
2023/09/25 02:52:32;;;;;;;7.03;3.33;;;;;;;11.78;94.55;101531.47;4194532;28;22797;-69
2023/09/25 02:54:59;;;;;;;9.73;3.33;;;;;;;11.77;94.85;101529.75;4204249;28;20228;-69
2023/09/25 02:57:25;;;;;;;9.93;3.60;;;;;;;11.73;95.05;101530.03;4207373;28;20244;-68
2023/09/25 02:59:52;;;;;;;9.60;3.63;;;;;;;11.74;95.10;101520.88;4200496;28;20267;-70
2023/09/25 03:02:19;;;;;;;5.83;3.50;;;;;;;11.76;95.23;101522.59;4203134;28;20239;-68
2023/09/25 03:04:45;;;;;;;11.80;3.90;;;;;;;11.68;95.73;101512.41;4214717;28;20281;-68
2023/09/25 03:07:12;;;;;;;5.43;3.43;;;;;;;11.65;95.74;101518.06;4222429;28;20233;-68
2023/09/25 03:09:38;;;;;;;6.10;3.83;;;;;;;11.68;95.60;101517.84;4200353;28;20248;-68
2023/09/25 03:12:05;;;;;;;7.87;3.90;;;;;;;11.66;95.92;101525.22;4215571;28;23121;-68
2023/09/25 03:14:32;;;;;;;8.80;3.33;;;;;;;11.58;96.28;101523.16;4223828;28;20233;-70
2023/09/25 03:16:59;;;;;;;6.60;3.57;;;;;;;11.60;96.61;101518.47;4209848;28;20615;-69
2023/09/25 03:19:28;;;;;;;9.57;3.57;;;;;;;11.59;96.71;101516.75;4186548;28;20232;-67
2023/09/25 03:21:55;;;;;;;8.60;3.70;;;;;;;11.62;96.79;101526.50;4201243;28;23005;-68
2023/09/25 03:24:22;;;;;;;7.17;3.67;;;;;;;11.64;96.59;101522.66;4207282;28;20227;-68
2023/09/25 03:26:51;;;;;;;5.53;3.67;;;;;;;11.62;96.77;101521.06;4204568;28;20947;-70
2023/09/25 03:29:18;;;;;;;6.93;3.80;;;;;;;11.56;96.90;101519.72;4215544;28;20243;-68
2023/09/25 03:31:44;;;;;;;7.63;3.40;;;;;;;11.61;97.04;101519.34;4196493;28;20298;-69
2023/09/25 03:34:11;;;;;;;6.60;4.10;;;;;;;11.58;97.47;101523.16;4206093;28;20229;-68
2023/09/25 03:36:37;;;;;;;8.20;4.20;;;;;;;11.58;97.14;101536.72;4223784;28;21142;-68
2023/09/25 03:39:04;;;;;;;9.30;3.83;;;;;;;11.60;97.18;101529.31;4197895;28;20301;-67
2023/09/25 03:41:30;;;;;;;9.00;3.93;;;;;;;11.64;97.20;101529.91;4222158;28;20321;-70
2023/09/25 03:43:57;;;;;;;7.97;4.00;;;;;;;11.67;97.12;101544.06;4214702;28;20245;-69
2023/09/25 03:46:23;;;;;;;7.80;3.90;;;;;;;11.72;96.63;101543.69;4195803;28;20301;-68
2023/09/25 03:48:50;;;;;;;11.47;4.67;;;;;;;11.67;96.57;101544.06;4198932;28;20236;-68
2023/09/25 03:51:17;;;;;;;6.43;3.83;;;;;;;11.70;96.55;101551.13;4204148;28;20280;-71
2023/09/25 03:53:44;;;;;;;9.30;3.70;;;;;;;11.78;95.87;101554.06;4209731;28;20364;-69
2023/09/25 03:56:10;;;;;;;10.60;3.83;;;;;;;11.71;96.13;101553.69;4207256;28;21301;-68
2023/09/25 03:58:37;;;;;;;7.80;3.43;;;;;;;11.72;96.50;101558.16;4200328;28;20669;-70
2023/09/25 04:01:05;;;;;;;9.40;3.70;;;;;;;11.73;95.95;101546.31;4222167;28;21843;-69
2023/09/25 04:03:31;;;;;;;7.57;4.03;;;;;;;11.69;96.15;101544.81;4231103;28;20251;-69
2023/09/25 04:05:58;;;;;;;14.13;3.67;;;;;;;11.67;96.26;101549.50;4198623;28;21638;-71
2023/09/25 04:08:25;;;;;;;9.57;3.97;;;;;;;11.69;96.41;101554.81;4193822;28;20230;-71
2023/09/25 04:10:52;;;;;;;7.57;3.47;;;;;;;11.63;96.29;101558.91;4205340;28;20318;-68
2023/09/25 04:13:22;;;;;;;7.60;3.87;;;;;;;11.60;96.82;101561.84;4209077;28;20514;-70
2023/09/25 04:15:50;;;;;;;6.80;3.70;;;;;;;11.61;97.07;101568.16;4202563;28;21569;-67
2023/09/25 04:18:18;;;;;;;8.50;3.73;;;;;;;11.61;96.94;101566.28;4214900;28;20405;-69
2023/09/25 04:20:45;;;;;;;8.17;3.37;;;;;;;11.67;96.48;101567.66;4202215;28;20276;-69
2023/09/25 04:23:13;;;;;;;6.53;3.50;;;;;;;11.70;96.75;101578.25;4201068;28;20233;-68
2023/09/25 04:25:40;;;;;;;6.90;3.73;;;;;;;11.70;96.47;101578.25;4218461;28;22277;-70
2023/09/25 04:28:06;;;;;;;7.30;3.50;;;;;;;11.67;96.82;101570.34;4208768;28;20391;-68
2023/09/25 04:30:33;;;;;;;8.77;3.70;;;;;;;11.66;96.77;101568.63;4220950;28;20253;-70
2023/09/25 04:33:00;;;;;;;7.23;3.93;;;;;;;11.65;96.60;101573.19;4215631;28;20228;-68
2023/09/25 04:35:28;;;;;;;10.20;4.13;;;;;;;11.71;96.75;101572.69;4211756;28;20600;-68
2023/09/25 04:37:55;;;;;;;7.13;3.63;;;;;;;11.67;96.00;101573.06;4201053;28;20236;-71
2023/09/25 04:40:22;;;;;;;9.57;3.57;;;;;;;11.74;96.09;101574.28;4205050;28;20419;-68
2023/09/25 04:42:50;;;;;;;6.27;3.33;;;;;;;11.77;95.77;101565.03;4214162;28;21203;-70
2023/09/25 04:45:20;;;;;;;9.37;3.50;;;;;;;11.72;95.95;101570.81;4202718;28;20236;-71
2023/09/25 04:47:48;;;;;;;7.00;3.30;;;;;;;11.67;96.28;101570.34;4210347;28;20238;-69
2023/09/25 04:50:15;;;;;;;6.83;3.70;;;;;;;11.65;96.53;101578.63;4220824;28;20322;-70
2023/09/25 04:52:44;;;;;;;8.50;4.37;;;;;;;11.69;96.61;101579.25;4224375;28;20238;-70
2023/09/25 04:55:12;;;;;;;11.70;3.90;;;;;;;11.64;96.41;101585.03;4194501;28;20244;-67
2023/09/25 04:57:43;;;;;;;7.43;3.93;;;;;;;11.61;96.71;101589.84;4198784;28;20253;-69
2023/09/25 05:00:27;;;;;;;10.60;3.90;;;;;;;11.67;96.88;101589.34;4206674;28;20252;-69
2023/09/25 05:02:56;;;;;;;12.37;3.80;;;;;;;11.65;96.78;101594.03;4197409;28;20232;-69
2023/09/25 05:05:23;;;;;;;10.30;3.93;;;;;;;11.51;97.47;101592.47;4203222;28;20394;-66
2023/09/25 05:07:51;;;;;;;11.23;4.03;;;;;;;11.54;97.97;101600.31;4218502;28;20633;-69
2023/09/25 05:10:25;;;;;;;10.37;3.63;;;;;;;11.61;97.57;101587.13;4219863;28;20256;-66
2023/09/25 05:12:54;;;;;;;6.60;3.80;;;;;;;11.64;97.08;101582.31;4212452;28;22091;-67
2023/09/25 05:15:21;;;;;;;9.37;3.90;;;;;;;11.59;97.52;101584.56;4200806;28;20238;-70
2023/09/25 05:17:48;;;;;;;10.13;3.90;;;;;;;11.58;97.64;101572.84;4203301;28;20350;-71
2023/09/25 05:20:22;;;;;;;6.20;3.40;;;;;;;11.70;97.00;101579.09;4224354;28;21991;-71
2023/09/25 05:22:50;;;;;;;10.23;4.00;;;;;;;11.76;96.98;101566.88;4215189;28;20240;-69
2023/09/25 05:25:18;;;;;;;21.30;5.80;;;;;;;11.84;96.64;101579.81;4198540;28;20230;-68
2023/09/25 05:27:50;;;;;;;16.67;5.03;;;;;;;12.04;96.12;101572.75;4208974;28;20244;-65
2023/09/25 05:30:18;;;;;;;7.47;3.30;;;;;;;12.02;95.37;101581.03;4204622;28;20403;-65
2023/09/25 05:32:49;;;;;;;7.90;3.60;;;;;;;12.07;95.54;101582.47;4197557;28;20592;-66
2023/09/25 05:35:17;;;;;;;9.37;3.43;;;;;;;12.03;95.67;101579.16;4198909;28;20229;-65
2023/09/25 05:37:48;;;;;;;10.30;3.77;;;;;;;12.07;95.22;101585.19;4218538;28;20324;-68
2023/09/25 05:40:16;;;;;;;8.43;3.50;;;;;;;12.27;94.75;101578.06;4218703;28;20376;-66
2023/09/25 05:42:45;;;;;;;10.73;3.60;;;;;;;12.44;93.87;101582.94;4208127;28;20242;-68
2023/09/25 05:45:13;;;;;;;5.53;3.37;;;;;;;12.53;93.10;101578.56;4203217;28;20248;-68
2023/09/25 05:47:41;;;;;;;12.27;3.30;;;;;;;12.56;92.75;101564.72;4201530;28;20347;-69
2023/09/25 05:50:08;;;;;;;8.43;3.50;;;;;;;12.70;92.11;101573.53;4207041;28;20237;-71
2023/09/25 05:52:39;;;;;;;9.27;2.93;;;;;;;12.79;90.99;101572.72;4216506;28;20320;-72
2023/09/25 05:55:07;;;;;;;10.77;3.33;;;;;;;12.86;90.97;101583.91;4223247;28;20242;-76
2023/09/25 05:57:35;;;;;;;8.53;2.80;;;;;;;12.98;90.37;101566.53;4227534;28;20232;-77
2023/09/25 06:00:12;;;;;;;9.20;2.90;;;;;;;13.02;90.00;101584.28;4218169;28;21707;-76
2023/09/25 06:02:41;;;;;;;11.73;2.83;;;;;;;13.17;89.53;101576.66;4232085;28;20428;-75
2023/09/25 06:05:10;;;;;;;6.30;2.67;;;;;;;13.25;88.12;101574.09;4223841;28;20446;-75
2023/09/25 06:07:36;;;;;;;8.17;2.60;;;;;;;13.43;87.29;101568.91;4226105;28;20228;-76
2023/09/25 06:10:08;;;;;;;16.57;2.93;;;;;;;13.38;87.52;101571.16;4233160;28;20241;-78
2023/09/25 06:12:35;;;;;;;11.47;2.70;;;;;;;13.49;87.57;101572.06;4200484;28;22810;-79
2023/09/25 06:15:09;;;;;;;7.90;2.30;;;;;;;13.62;86.42;101564.50;4197611;28;22893;-79
2023/09/25 06:17:39;;;;;;;9.60;2.77;;;;;;;13.71;86.03;101566.38;4221148;28;20233;-79
2023/09/25 06:20:14;;;;;;;6.90;2.50;;;;;;;13.89;85.16;101569.28;4240614;28;23045;-78
2023/09/25 06:22:44;;;;;;;8.83;2.60;;;;;;;13.95;84.65;101570.59;4239030;28;20439;-79
2023/09/25 06:25:11;;;;;;;8.13;2.47;;;;;;;14.13;83.48;101569.84;4257619;28;20679;-77
2023/09/25 06:27:39;;;;;;;4.77;1.97;;;;;;;14.23;81.99;101560.72;4262581;28;20298;-77
2023/09/25 06:30:09;;;;;;;6.27;2.17;;;;;;;14.32;82.22;101574.44;4216896;28;22818;-76
2023/09/25 06:32:36;;;;;;;9.03;2.03;;;;;;;14.38;81.91;101579.34;4208267;28;20469;-76
2023/09/25 06:35:04;;;;;;;8.00;2.33;;;;;;;14.49;81.32;101572.88;4211761;28;26243;-77
2023/09/25 06:37:31;;;;;;;6.87;2.17;;;;;;;14.53;81.17;101579.75;4240682;28;20230;-77
2023/09/25 06:39:57;;;;;;;5.50;2.03;;;;;;;14.52;81.05;101573.44;4228372;28;22328;-77
2023/09/25 06:42:24;;;;;;;7.63;2.30;;;;;;;14.77;80.85;101587.47;4207959;28;23157;-77
2023/09/25 06:44:51;;;;;;;4.47;2.00;;;;;;;14.95;79.60;101578.53;4216474;28;21820;-77
2023/09/25 06:47:17;;;;;;;5.50;2.10;;;;;;;15.09;79.31;101580.78;4231100;28;22186;-78
2023/09/25 06:49:44;;;;;;;7.00;2.30;;;;;;;15.11;78.45;101583.34;4226213;28;20342;-75
2023/09/25 06:52:11;;;;;;;4.70;1.73;;;;;;;15.28;78.07;101589.91;4235675;28;21811;-77
2023/09/25 06:54:37;;;;;;;7.47;2.30;;;;;;;15.48;76.37;101587.97;4208035;28;20236;-79
2023/09/25 06:57:04;;;;;;;6.33;2.00;;;;;;;15.50;76.66;101591.38;4220282;28;20258;-74
2023/09/25 06:59:32;;;;;;;4.30;1.63;;;;;;;15.47;76.56;101587.06;4227562;28;20386;-75
2023/09/25 07:01:59;;;;;;;5.87;1.83;;;;;;;15.66;76.02;101585.28;4206241;28;20623;-74
2023/09/25 07:04:26;;;;;;;5.20;1.60;;;;;;;15.79;74.74;101584.88;4233555;28;23677;-75
2023/09/25 07:06:55;;;;;;;4.10;1.63;;;;;;;16.10;73.84;101581.81;4209415;28;20229;-75
2023/09/25 07:09:22;;;;;;;4.97;1.70;;;;;;;16.32;72.87;101588.69;4237651;28;20532;-74
2023/09/25 07:11:50;;;;;;;3.90;1.63;;;;;;;16.52;72.28;101585.78;4237889;28;20390;-77
2023/09/25 07:14:17;;;;;;;5.40;1.50;;;;;;;16.52;71.83;101594.84;4250802;28;21633;-76
2023/09/25 07:16:43;;;;;;;3.40;1.30;;;;;;;17.20;69.29;101596.03;4247374;28;20232;-74
2023/09/25 07:19:11;;;;;;;6.17;1.60;;;;;;;17.58;68.28;101595.66;4254851;28;20242;-75
2023/09/25 07:21:38;;;;;;;4.03;1.60;;;;;;;18.56;65.11;101601.53;4263631;28;20242;-72
2023/09/25 07:24:07;;;;;;;8.87;1.60;;;;;;;19.64;60.70;101601.13;4198827;28;20247;-76
2023/09/25 07:26:34;;;;;;;7.60;1.57;;;;;;;18.09;63.94;101611.28;4214202;28;21079;-74
2023/09/25 07:29:01;;;;;;;8.53;1.70;;;;;;;17.67;66.46;101616.59;4220443;28;20304;-72
2023/09/25 07:31:30;;;;;;;10.10;1.50;;;;;;;17.74;66.28;101616.81;4214532;28;23023;-75
2023/09/25 07:33:58;;;;;;;10.00;1.70;;;;;;;18.04;65.50;101603.56;4229103;28;20227;-72
2023/09/25 07:36:26;;;;;;;7.80;1.37;;;;;;;19.26;61.66;101620.16;4216952;28;20236;-78
2023/09/25 07:38:54;;;;;;;4.53;1.40;;;;;;;19.11;62.28;101624.66;4210010;28;22234;-73
2023/09/25 07:41:23;;;;;;;8.27;2.00;;;;;;;18.50;63.37;101614.91;4199893;28;20246;-73
2023/09/25 07:43:50;;;;;;;3.50;1.40;;;;;;;18.22;64.40;101614.38;4239781;28;23625;-75
2023/09/25 07:46:25;;;;;;;4.40;1.40;;;;;;;19.16;61.03;101611.25;4238512;28;20594;-73
2023/09/25 07:48:53;;;;;;;4.77;1.10;;;;;;;19.61;60.33;101606.97;4219151;28;20234;-76
2023/09/25 07:51:20;;;;;;;4.33;1.23;;;;;;;21.36;54.86;101602.69;4255825;28;26092;-74
2023/09/25 07:53:49;;;;;;;5.17;1.50;;;;;;;22.23;51.65;101594.63;4239767;28;20445;-73
2023/09/25 07:56:16;;;;;;;7.67;1.47;;;;;;;22.96;49.97;101607.38;4244151;28;20305;-73
2023/09/25 07:58:43;;;;;;;5.37;1.40;;;;;;;24.23;46.20;101604.41;4226347;28;21649;-72
2023/09/25 08:01:12;;;;;;;4.03;1.37;;;;;;;24.34;45.88;101614.84;4216415;28;21402;-73
2023/09/25 08:03:39;;;;;;;4.93;1.40;;;;;;;25.05;44.26;101597.81;4223811;28;22051;-73
2023/09/25 08:06:06;;;;;;;8.37;1.67;;;;;;;24.78;44.91;101586.78;4233039;28;20251;-73
2023/09/25 08:08:34;;;;;;;6.30;1.60;;;;;;;24.82;44.73;101594.47;4217433;28;20344;-75
2023/09/25 08:11:01;;;;;;;5.73;1.80;;;;;;;25.67;43.23;101592.78;4251873;28;21978;-74
2023/09/25 08:13:30;;;;;;;7.60;1.57;;;;;;;25.06;43.31;101588.44;4240207;28;20236;-74
2023/09/25 08:16:04;;;;;;;4.03;1.73;;;;;;;25.62;42.87;101595.34;4256570;28;20586;-74
2023/09/25 08:18:31;;;;;;;4.53;1.60;;;;;;;25.49;42.39;101599.03;4226412;28;20294;-72
2023/09/25 08:20:59;;;;;;;4.80;1.57;;;;;;;26.64;40.14;101594.53;4257038;28;22133;-75
2023/09/25 08:23:27;;;;;;;2.53;1.27;;;;;;;25.68;41.73;101590.84;4270953;28;20282;-75
2023/09/25 08:25:55;;;;;;;7.47;1.90;;;;;;;25.75;42.37;101591.66;4227091;28;21751;-79
2023/09/25 08:28:22;;;;;;;13.33;1.93;;;;;;;25.93;41.74;101591.78;4245524;28;20237;-72
2023/09/25 08:30:49;;;;;;;1.87;1.20;;;;;;;25.53;42.49;101589.19;4232078;28;20711;-74
2023/09/25 08:33:15;;;;;;;4.07;1.10;;;;;;;24.35;44.66;101585.25;4215846;28;20373;-74
2023/09/25 08:35:43;;;;;;;2.27;1.20;;;;;;;22.95;48.33;101594.63;4250664;28;21964;-71
2023/09/25 08:38:10;;;;;;;6.67;1.27;;;;;;;22.40;49.48;101581.44;4236814;28;20263;-74
2023/09/25 08:40:42;;;;;;;4.57;1.10;;;;;;;22.30;51.20;101583.66;4221653;28;20243;-70
2023/09/25 08:43:10;;;;;;;10.33;1.40;;;;;;;21.97;52.49;101568.50;4240593;28;20237;-72
2023/09/25 08:45:49;;;;;;;4.73;1.30;;;;;;;21.58;52.14;101579.88;4236629;28;22033;-69
2023/09/25 08:48:17;;;;;;;5.13;1.10;;;;;;;21.32;53.73;101572.97;4224847;28;25721;-71
2023/09/25 08:50:45;;;;;;;3.37;1.20;;;;;;;21.09;54.73;101573.06;4215246;28;20240;-74
2023/09/25 08:53:13;;;;;;;5.13;1.30;;;;;;;21.12;54.46;101576.28;4235913;28;20568;-75
2023/09/25 08:55:42;;;;;;;4.07;1.20;;;;;;;21.39;54.06;101571.16;4224758;28;20235;-71
2023/09/25 08:58:10;;;;;;;4.60;1.40;;;;;;;21.82;52.88;101578.72;4221402;28;20234;-70
2023/09/25 09:00:38;;;;;;;3.93;1.33;;;;;;;21.49;53.22;101570.84;4229566;28;20248;-71
2023/09/25 09:03:05;;;;;;;2.80;1.33;;;;;;;21.56;53.09;101576.47;4250684;28;20537;-70
2023/09/25 09:05:32;;;;;;;3.93;1.20;;;;;;;21.95;52.80;101573.34;4239864;28;20388;-69
2023/09/25 09:08:01;;;;;;;2.93;1.20;;;;;;;22.24;51.37;101574.28;4214264;28;20234;-74
2023/09/25 09:10:40;;;;;;;5.10;1.33;;;;;;;21.97;51.17;101571.25;4229901;28;25042;-73
2023/09/25 09:13:10;;;;;;;6.50;1.30;;;;;;;21.49;52.20;101562.59;4243077;28;20592;-70
2023/09/25 09:15:39;;;;;;;6.33;1.23;;;;;;;21.70;52.25;101561.81;4200040;28;21250;-72
2023/09/25 09:18:24;;;;;;;4.37;1.30;;;;;;;21.61;50.89;101563.81;4210906;28;22325;-74
2023/09/25 09:20:55;;;;;;;4.20;1.50;;;;;;;21.04;52.24;101573.63;4232514;28;20239;-70
2023/09/25 09:23:42;;;;;;;2.73;1.17;;;;;;;21.43;52.26;101549.59;4244150;28;20256;-74
2023/09/25 09:26:14;;;;;;;2.13;1.00;;;;;;;21.33;52.51;101553.50;4223471;28;20233;-73
2023/09/25 09:28:43;;;;;;;3.90;1.40;;;;;;;21.45;52.24;101556.59;4232397;28;22780;-70
2023/09/25 09:31:11;;;;;;;4.33;1.07;;;;;;;22.03;50.38;101555.81;4196255;28;20426;-69
2023/09/25 09:33:41;;;;;;;7.53;1.40;;;;;;;21.94;50.17;101554.25;4213497;28;22184;-69
2023/09/25 09:36:15;;;;;;;7.93;1.50;;;;;;;21.69;50.99;101560.94;4225948;28;20299;-69
2023/09/25 09:38:42;;;;;;;6.90;1.40;;;;;;;21.12;52.85;101553.41;4200160;28;26157;-71
2023/09/25 09:41:09;;;;;;;4.47;1.50;;;;;;;21.40;52.50;101552.72;4224203;28;21012;-71
2023/09/25 09:43:37;;;;;;;3.73;1.30;;;;;;;21.65;52.42;101553.25;4215266;28;21052;-77
2023/09/25 09:46:04;;;;;;;6.43;1.40;;;;;;;21.82;51.95;101543.72;4216220;28;21595;-71
2023/09/25 09:48:32;;;;;;;3.53;1.30;;;;;;;21.76;51.66;101551.91;4212432;28;20465;-71
2023/09/25 09:51:00;;;;;;;4.13;1.17;;;;;;;21.36;52.19;101546.72;4252813;28;20240;-70
2023/09/25 09:53:29;;;;;;;3.50;1.20;;;;;;;21.46;52.11;101541.78;4229766;28;20307;-70
2023/09/25 09:55:56;;;;;;;5.13;1.53;;;;;;;21.10;52.75;101550.84;4209944;28;20339;-70
2023/09/25 09:58:27;;;;;;;8.13;1.60;;;;;;;21.20;54.00;101536.78;4235069;28;20235;-67
2023/09/25 10:00:56;;;;;;;6.23;1.70;;;;;;;21.11;52.78;101543.44;4247809;28;20652;-73
2023/09/25 10:03:24;;;;;;;4.70;1.33;;;;;;;21.07;52.65;101534.72;4233101;28;20247;-71
2023/09/25 10:05:53;;;;;;;5.23;1.40;;;;;;;20.93;53.77;101541.06;4229109;28;20649;-48
2023/09/25 10:08:21;;;;;;;2.27;1.20;;;;;;;21.06;53.96;101533.00;4227408;28;20243;-72
2023/09/25 10:10:51;;;;;;;5.87;1.30;;;;;;;21.04;53.34;101537.81;4220543;28;20237;-70
2023/09/25 10:13:25;;;;;;;4.40;1.60;;;;;;;20.75;54.99;101531.28;4219889;28;20227;-72
2023/09/25 10:16:00;;;;;;;3.67;1.43;;;;;;;20.79;53.33;101532.63;4227049;28;21277;-74
2023/09/25 10:18:29;;;;;;;4.53;1.53;;;;;;;20.97;54.32;101532.25;4244117;28;20228;-77
2023/09/25 10:21:09;;;;;;;2.57;1.37;;;;;;;20.77;53.80;101536.59;4216822;28;20229;-74
2023/09/25 10:23:42;;;;;;;3.33;1.20;;;;;;;20.93;53.38;101535.56;4228979;28;25074;-73
2023/09/25 10:26:24;;;;;;;3.00;1.30;;;;;;;21.04;53.58;101526.81;4215420;28;20244;-74
2023/09/25 10:28:58;;;;;;;2.77;1.40;;;;;;;21.05;53.42;101525.78;4223471;28;20621;-74
2023/09/25 10:31:29;;;;;;;5.70;1.30;;;;;;;21.30;51.73;101528.22;4225293;28;20250;-74
2023/09/25 10:33:59;;;;;;;3.63;1.27;;;;;;;21.41;51.86;101525.00;4202392;28;20275;-74
2023/09/25 10:36:43;;;;;;;3.60;1.30;;;;;;;21.74;51.59;101524.53;4205751;28;22134;-75
2023/09/25 10:39:15;;;;;;;2.27;1.17;;;;;;;21.72;51.49;101518.38;4215399;28;21090;-74
2023/09/25 10:41:44;;;;;;;3.20;1.10;;;;;;;21.35;51.22;101523.00;4198342;28;25396;-75
2023/09/25 10:44:12;;;;;;;3.30;1.40;;;;;;;21.20;51.50;101521.13;4206202;28;25058;-76
2023/09/25 10:46:39;;;;;;;4.27;1.20;;;;;;;21.25;51.84;101523.28;4211955;28;20233;-78
2023/09/25 10:49:08;;;;;;;3.30;1.30;;;;;;;21.37;51.56;101507.97;4217986;28;22002;-75
2023/09/25 10:51:35;;;;;;;3.03;1.30;;;;;;;21.60;51.42;101519.94;4213379;28;20232;-75
2023/09/25 10:54:03;;;;;;;3.50;1.33;;;;;;;21.76;50.39;101502.28;4201983;28;20236;-75
2023/09/25 10:56:30;;;;;;;2.07;1.10;;;;;;;21.68;50.48;101515.16;4204077;28;20239;-74
2023/09/25 10:58:57;;;;;;;4.17;1.50;;;;;;;21.85;49.54;101509.41;4233204;28;20237;-76
2023/09/25 11:01:27;;;;;;;3.30;1.00;;;;;;;21.89;49.69;101521.75;4221604;28;21245;-74
2023/09/25 11:03:57;;;;;;;4.20;1.40;;;;;;;21.96;50.57;101510.78;4204831;28;20225;-74
2023/09/25 11:06:25;;;;;;;2.87;1.27;;;;;;;22.14;49.40;101505.66;4214524;28;26575;-75
2023/09/25 11:09:04;;;;;;;4.43;1.63;;;;;;;22.06;49.28;101500.28;4215216;28;22173;-77
2023/09/25 11:11:31;;;;;;;4.50;1.47;;;;;;;22.09;47.88;101499.03;4233944;28;20245;-76
2023/09/25 11:13:58;;;;;;;6.37;1.57;;;;;;;21.72;49.69;101504.59;4216161;28;20311;-74
2023/09/25 11:16:25;;;;;;;4.00;1.23;;;;;;;21.62;49.81;101499.41;4218555;28;20236;-75
2023/09/25 11:19:12;;;;;;;3.97;1.30;;;;;;;21.60;50.05;101493.22;4215115;28;20325;-74
2023/09/25 11:21:40;;;;;;;3.37;1.43;;;;;;;21.78;50.29;101489.19;4240133;28;20242;-74
2023/09/25 11:24:09;;;;;;;3.27;1.20;;;;;;;21.49;50.15;101489.03;4206318;28;20317;-75
2023/09/25 11:26:37;;;;;;;3.00;1.30;;;;;;;21.57;50.18;101492.72;4227125;28;25506;-75
2023/09/25 11:29:11;;;;;;;3.03;1.40;;;;;;;21.65;49.93;101488.00;4218322;28;20238;-74